createdAt,value
2022-10-14T00:00:40.750Z,80.70
2022-10-14T00:03:07.737Z,80.80
2022-10-14T00:05:34.717Z,80.80
2022-10-14T00:08:01.713Z,80.80
2022-10-14T00:10:28.685Z,80.90
2022-10-14T00:12:55.636Z,81.00
2022-10-14T00:15:23.460Z,81.00
2022-10-14T00:17:50.350Z,81.00
2022-10-14T00:20:17.324Z,81.10
2022-10-14T00:22:44.231Z,81.20
2022-10-14T00:25:12.121Z,81.30
2022-10-14T00:27:39.587Z,81.30
2022-10-14T00:30:12.635Z,81.40
2022-10-14T00:32:39.625Z,81.60
2022-10-14T00:35:07.004Z,81.60
2022-10-14T00:37:34.041Z,81.60
2022-10-14T00:40:01.035Z,81.60
2022-10-14T00:42:28.460Z,81.70
2022-10-14T00:45:04.150Z,81.70
2022-10-14T00:47:32.313Z,81.90
2022-10-14T00:50:00.752Z,82.00
2022-10-14T00:52:30.213Z,82.00
2022-10-14T00:55:03.360Z,82.00
2022-10-14T00:57:31.561Z,82.00
2022-10-14T01:00:05.927Z,82.00
2022-10-14T01:02:33.093Z,82.10
2022-10-14T01:05:01.702Z,82.10
2022-10-14T01:08:04.634Z,82.20
2022-10-14T01:11:12.606Z,82.30
2022-10-14T01:14:00.159Z,82.30
2022-10-14T01:16:43.423Z,82.30
2022-10-14T01:19:27.341Z,82.30
2022-10-14T01:22:05.573Z,82.30
2022-10-14T01:24:40.891Z,82.30
2022-10-14T01:27:31.961Z,82.30
2022-10-14T01:30:08.109Z,82.30
2022-10-14T01:32:48.836Z,82.30
2022-10-14T01:35:37.123Z,82.30
2022-10-14T01:38:15.006Z,82.30
2022-10-14T01:41:08.113Z,82.30
2022-10-14T01:43:39.038Z,82.40
2022-10-14T01:46:08.266Z,82.30
2022-10-14T01:48:37.856Z,82.40
2022-10-14T01:51:13.425Z,82.40
2022-10-14T01:53:44.804Z,82.50
2022-10-14T01:56:13.661Z,82.50
2022-10-14T01:58:42.384Z,82.50
2022-10-14T02:01:10.150Z,82.60
2022-10-14T02:03:47.032Z,82.60
2022-10-14T02:06:24.901Z,82.60
2022-10-14T02:09:03.271Z,82.60
2022-10-14T02:11:56.717Z,82.50
2022-10-14T02:14:32.190Z,82.40
2022-10-14T02:17:30.463Z,82.30
2022-10-14T02:20:13.693Z,82.30
2022-10-14T02:22:43.478Z,83.00
2022-10-14T02:25:23.990Z,82.20
2022-10-14T02:27:53.379Z,82.20
2022-10-14T02:30:21.579Z,82.20
2022-10-14T02:32:59.058Z,82.10
2022-10-14T02:35:30.495Z,82.20
2022-10-14T02:37:59.128Z,82.20
2022-10-14T02:40:50.686Z,82.20
2022-10-14T02:43:18.819Z,83.10
2022-10-14T02:45:45.901Z,82.30
2022-10-14T02:48:13.477Z,82.30
2022-10-14T02:50:41.509Z,82.40
2022-10-14T02:53:09.524Z,82.40
2022-10-14T02:55:36.788Z,82.40
2022-10-14T02:58:06.250Z,82.40
2022-10-14T03:00:33.427Z,82.30
2022-10-14T03:03:01.882Z,82.30
2022-10-14T03:05:32.546Z,82.20
2022-10-14T03:07:59.877Z,82.20
2022-10-14T03:10:28.866Z,82.20
2022-10-14T03:12:55.876Z,82.20
2022-10-14T03:15:31.074Z,82.30
2022-10-14T03:17:59.771Z,82.30
2022-10-14T03:20:35.925Z,82.20
2022-10-14T03:23:04.271Z,82.30
2022-10-14T03:25:34.954Z,82.20
2022-10-14T03:28:09.776Z,82.30
2022-10-14T03:30:44.562Z,82.20
2022-10-14T03:33:20.415Z,82.20
2022-10-14T03:36:05.499Z,82.20
2022-10-14T03:38:43.660Z,82.10
2022-10-14T03:41:19.381Z,82.20
2022-10-14T03:43:47.369Z,82.20
2022-10-14T03:46:14.507Z,82.20
2022-10-14T03:48:42.300Z,82.10
2022-10-14T03:51:09.948Z,82.10
2022-10-14T03:53:37.204Z,82.00
2022-10-14T03:56:05.600Z,82.00
2022-10-14T03:58:33.423Z,82.00
2022-10-14T04:01:06.301Z,81.90
2022-10-14T04:03:59.122Z,81.90
2022-10-14T04:06:28.137Z,81.90
2022-10-14T04:08:58.088Z,81.80
2022-10-14T04:11:34.063Z,81.70
2022-10-14T04:14:05.461Z,81.70
2022-10-14T04:16:38.122Z,81.70
2022-10-14T04:19:11.845Z,81.70
2022-10-14T04:21:41.034Z,81.70
2022-10-14T04:24:10.252Z,81.70
2022-10-14T04:26:42.503Z,81.80
2022-10-14T04:29:16.335Z,81.90
2022-10-14T04:31:53.699Z,81.90
2022-10-14T04:34:21.712Z,81.70
2022-10-14T04:36:48.948Z,81.70
2022-10-14T04:39:25.648Z,81.60
2022-10-14T04:41:53.488Z,81.50
2022-10-14T04:44:23.053Z,81.50
2022-10-14T04:46:54.160Z,81.40
2022-10-14T04:49:25.064Z,81.40
2022-10-14T04:52:02.264Z,81.50
2022-10-14T04:54:35.818Z,81.40
2022-10-14T04:57:02.889Z,81.40
2022-10-14T04:59:30.500Z,81.40
2022-10-14T05:02:17.744Z,81.40
2022-10-14T05:04:51.954Z,81.50
2022-10-14T05:07:19.146Z,81.60
2022-10-14T05:09:53.143Z,81.50
2022-10-14T05:12:37.205Z,81.50
2022-10-14T05:15:05.398Z,81.50
2022-10-14T05:17:46.279Z,81.50
2022-10-14T05:20:16.772Z,81.50
2022-10-14T05:22:48.224Z,81.50
2022-10-14T05:25:15.279Z,81.40
2022-10-14T05:27:43.537Z,81.40
2022-10-14T05:30:11.899Z,81.40
2022-10-14T05:32:44.012Z,81.40
2022-10-14T05:35:11.111Z,81.30
2022-10-14T05:37:40.386Z,81.20
2022-10-14T05:40:08.712Z,81.20
2022-10-14T05:42:37.195Z,81.10
2022-10-14T05:45:05.680Z,81.90
2022-10-14T05:47:36.343Z,81.10
2022-10-14T05:50:12.982Z,81.10
2022-10-14T05:52:42.999Z,80.90
2022-10-14T05:55:17.088Z,80.80
2022-10-14T05:57:45.367Z,80.60
2022-10-14T06:00:24.680Z,80.50
2022-10-14T06:02:58.834Z,80.30
2022-10-14T06:05:27.167Z,80.10
2022-10-14T06:07:54.311Z,79.80
2022-10-14T06:10:21.373Z,79.60
2022-10-14T06:12:48.384Z,79.40
2022-10-14T06:15:15.619Z,79.90
2022-10-14T06:17:42.532Z,78.80
2022-10-14T06:20:10.322Z,78.00
2022-10-14T06:22:37.276Z,76.10
2022-10-14T06:25:04.801Z,74.30
2022-10-14T06:27:31.866Z,72.60
2022-10-14T06:29:58.749Z,71.50
2022-10-14T06:32:25.732Z,70.90
2022-10-14T06:34:52.673Z,70.60
2022-10-14T06:37:19.615Z,70.50
2022-10-14T06:39:46.566Z,70.40
2022-10-14T06:42:13.510Z,70.50
2022-10-14T06:44:40.502Z,70.10
2022-10-14T06:47:08.168Z,70.00
2022-10-14T06:49:35.428Z,69.70
2022-10-14T06:52:02.783Z,69.10
2022-10-14T06:54:29.794Z,68.50
2022-10-14T06:56:56.763Z,68.10
2022-10-14T06:59:23.884Z,67.40
2022-10-14T07:01:50.860Z,66.70
2022-10-14T07:04:17.870Z,65.70
2022-10-14T07:06:44.884Z,64.70
2022-10-14T07:09:11.815Z,63.50
2022-10-14T07:11:38.846Z,61.70
2022-10-14T07:14:05.893Z,59.90
2022-10-14T07:16:33.295Z,58.00
2022-10-14T07:19:00.283Z,56.30
2022-10-14T07:21:27.289Z,54.70
2022-10-14T07:23:55.554Z,52.60
2022-10-14T07:26:22.656Z,51.10
2022-10-14T07:28:49.672Z,49.70
2022-10-14T07:31:16.795Z,48.50
2022-10-14T07:33:43.777Z,47.50
2022-10-14T07:36:16.068Z,46.80
2022-10-14T07:38:45.758Z,45.80
2022-10-14T07:41:19.367Z,45.20
2022-10-14T07:43:47.155Z,44.50
2022-10-14T07:46:16.316Z,44.40
2022-10-14T07:48:56.675Z,43.50
2022-10-14T07:51:24.564Z,42.40
2022-10-14T07:53:53.208Z,42.00
2022-10-14T07:56:21.000Z,41.40
2022-10-14T07:58:48.760Z,40.80
2022-10-14T08:01:16.540Z,40.20
2022-10-14T08:03:43.962Z,39.60
2022-10-14T08:06:13.208Z,39.20
2022-10-14T08:08:41.097Z,38.80
2022-10-14T08:11:10.395Z,38.70
2022-10-14T08:13:41.826Z,38.60
2022-10-14T08:16:26.880Z,38.70
2022-10-14T08:18:57.097Z,38.60
2022-10-14T08:21:24.414Z,39.00
2022-10-14T08:23:51.699Z,39.80
2022-10-14T08:26:23.190Z,40.30
2022-10-14T08:28:51.422Z,40.80
2022-10-14T08:31:18.693Z,41.10
2022-10-14T08:33:45.819Z,41.20
2022-10-14T08:36:13.012Z,41.50
2022-10-14T08:38:40.235Z,42.50
2022-10-14T08:41:12.928Z,43.00
2022-10-14T08:44:01.410Z,43.40
2022-10-14T08:46:52.530Z,44.10
2022-10-14T08:49:57.221Z,44.60
2022-10-14T08:52:34.993Z,45.20
2022-10-14T08:55:37.296Z,46.00
2022-10-14T09:00:57.024Z,45.00
2022-10-14T09:03:33.036Z,44.20
2022-10-14T09:06:22.777Z,44.40
2022-10-14T09:08:52.870Z,44.30
2022-10-14T09:11:22.235Z,43.90
2022-10-14T09:13:52.911Z,43.70
2022-10-14T09:16:32.683Z,43.00
2022-10-14T09:19:28.826Z,42.30
2022-10-14T09:21:56.086Z,41.90
2022-10-14T09:24:31.120Z,42.10
2022-10-14T09:27:11.036Z,43.00
2022-10-14T09:29:37.921Z,42.10
2022-10-14T09:32:09.788Z,42.50
2022-10-14T09:34:46.021Z,42.80
2022-10-14T09:37:29.584Z,42.30
2022-10-14T09:40:01.005Z,41.90
2022-10-14T09:42:42.620Z,41.40
2022-10-14T09:45:13.566Z,40.40
2022-10-14T09:47:45.266Z,40.40
2022-10-14T09:50:21.948Z,39.60
2022-10-14T09:52:55.741Z,38.90
2022-10-14T09:55:24.436Z,39.20
2022-10-14T09:58:07.409Z,39.30
2022-10-14T10:00:37.675Z,39.10
2022-10-14T10:03:05.255Z,39.70
2022-10-14T10:05:36.593Z,38.90
2022-10-14T10:08:11.151Z,38.90
2022-10-14T10:10:38.756Z,39.10
2022-10-14T10:13:22.334Z,39.30
2022-10-14T10:16:00.790Z,39.30
2022-10-14T10:18:28.781Z,39.70
2022-10-14T10:21:02.617Z,40.50
2022-10-14T10:23:30.291Z,40.20
2022-10-14T10:26:16.372Z,40.40
2022-10-14T10:28:48.482Z,39.80
2022-10-14T10:34:36.228Z,40.20
2022-10-14T10:37:13.057Z,39.50
2022-10-14T10:40:07.785Z,39.20
2022-10-14T10:42:54.717Z,39.60
2022-10-14T10:45:45.897Z,40.60
2022-10-14T10:48:28.099Z,40.20
2022-10-14T10:50:58.799Z,40.10
2022-10-14T10:53:49.991Z,40.60
2022-10-14T10:56:42.713Z,41.80
2022-10-14T10:59:47.299Z,41.90
2022-10-14T11:02:50.542Z,42.60
2022-10-14T11:05:39.479Z,42.70
2022-10-14T11:08:48.461Z,43.20
2022-10-14T11:11:57.670Z,43.70
2022-10-14T11:14:48.781Z,44.50
2022-10-14T11:17:30.581Z,44.40
2022-10-14T11:20:34.468Z,44.80
2022-10-14T11:23:39.514Z,45.00
2022-10-14T11:26:25.533Z,44.30
2022-10-14T11:29:19.399Z,44.20
2022-10-14T11:32:04.029Z,44.20
2022-10-14T11:34:40.079Z,43.30
2022-10-14T11:37:21.991Z,42.80
2022-10-14T11:39:55.875Z,42.40
2022-10-14T11:43:07.826Z,42.50
2022-10-14T11:45:56.947Z,42.70
2022-10-14T11:48:42.430Z,43.30
2022-10-14T11:51:39.024Z,43.80
2022-10-14T11:54:06.006Z,44.90
2022-10-14T11:56:47.968Z,45.70
2022-10-14T11:59:32.966Z,46.30
2022-10-14T12:02:30.763Z,47.30
2022-10-14T12:05:23.197Z,47.50
2022-10-14T12:08:33.118Z,47.10
2022-10-14T12:11:14.903Z,47.10
2022-10-14T12:13:52.698Z,47.60
2022-10-14T12:16:22.852Z,48.20
2022-10-14T12:18:55.291Z,48.80
2022-10-14T12:21:32.718Z,49.50
2022-10-14T12:24:14.988Z,50.30
2022-10-14T12:26:53.649Z,51.50
2022-10-14T12:29:25.004Z,52.20
2022-10-14T12:32:03.953Z,52.60
2022-10-14T12:34:42.034Z,52.60
2022-10-14T12:37:27.425Z,52.60
2022-10-14T12:40:05.551Z,52.80
2022-10-14T12:42:44.318Z,52.50
2022-10-14T12:45:22.191Z,52.30
2022-10-14T12:48:01.848Z,51.50
2022-10-14T12:50:32.414Z,51.00
2022-10-14T12:53:02.063Z,50.30
2022-10-14T12:55:33.763Z,50.50
2022-10-14T12:58:03.336Z,49.00
2022-10-14T13:00:36.327Z,48.20
2022-10-14T13:03:06.613Z,47.90
2022-10-14T13:05:40.189Z,47.60
2022-10-14T13:08:25.677Z,47.60
2022-10-14T13:10:58.363Z,47.50
2022-10-14T13:13:38.373Z,47.90
2022-10-14T13:16:06.967Z,47.70
2022-10-14T13:18:43.146Z,48.00
2022-10-14T13:21:25.523Z,48.10
2022-10-14T13:23:53.571Z,48.50
2022-10-14T13:26:32.636Z,49.40
2022-10-14T13:29:26.219Z,50.00
2022-10-14T13:32:35.236Z,50.80
2022-10-14T13:35:19.750Z,51.10
2022-10-14T13:38:05.260Z,51.20
2022-10-14T13:40:37.792Z,51.80
2022-10-14T13:43:16.698Z,52.40
2022-10-14T13:46:09.125Z,52.60
2022-10-14T13:48:43.940Z,52.90
2022-10-14T13:51:24.588Z,52.90
2022-10-14T13:54:22.915Z,52.60
2022-10-14T14:02:49.009Z,52.00
2022-10-14T14:05:20.859Z,52.10
2022-10-14T14:08:31.705Z,52.20
2022-10-14T14:10:46.780Z,52.00
2022-10-14T14:13:25.102Z,52.00
2022-10-14T14:15:54.478Z,52.50
2022-10-14T14:18:49.301Z,52.80
2022-10-14T14:21:25.885Z,52.90
2022-10-14T14:23:58.273Z,53.10
2022-10-14T14:26:35.624Z,53.30
2022-10-14T14:29:21.067Z,53.70
2022-10-14T14:34:38.572Z,54.40
2022-10-14T14:40:29.475Z,55.30
2022-10-14T14:43:02.982Z,55.80
2022-10-14T14:45:33.946Z,56.30
2022-10-14T14:48:06.488Z,56.70
2022-10-14T14:50:39.186Z,57.30
2022-10-14T14:53:29.751Z,57.50
2022-10-14T14:55:56.671Z,57.20
2022-10-14T14:58:53.815Z,57.40
2022-10-14T15:01:26.896Z,57.70
2022-10-14T15:04:11.969Z,58.20
2022-10-14T15:06:50.911Z,59.00
2022-10-14T15:09:27.582Z,58.70
2022-10-14T15:11:57.798Z,59.40
2022-10-14T15:14:30.819Z,59.40
2022-10-14T15:16:58.418Z,59.60
2022-10-14T15:19:35.635Z,59.50
2022-10-14T15:22:28.853Z,60.20
2022-10-14T15:25:12.523Z,60.50
2022-10-14T15:27:45.782Z,61.10
2022-10-14T15:30:27.411Z,62.10
2022-10-14T15:33:03.571Z,63.10
2022-10-14T15:35:37.997Z,63.50
2022-10-14T15:38:15.927Z,63.70
2022-10-14T15:40:44.083Z,63.40
2022-10-14T15:43:18.046Z,63.50
2022-10-14T15:46:13.285Z,63.90
2022-10-14T15:48:46.131Z,63.80
2022-10-14T15:51:18.055Z,63.80
2022-10-14T15:53:45.145Z,64.10
2022-10-14T15:56:12.512Z,64.70
2022-10-14T15:58:39.483Z,65.50
2022-10-14T16:01:07.009Z,66.10
2022-10-14T16:03:37.296Z,66.40
2022-10-14T16:06:10.330Z,66.40
2022-10-14T16:08:42.696Z,66.60
2022-10-14T16:11:22.313Z,66.80
2022-10-14T16:13:49.545Z,67.60
2022-10-14T16:16:23.023Z,68.00
2022-10-14T16:18:50.311Z,68.80
2022-10-14T16:21:17.479Z,69.20
2022-10-14T16:23:44.495Z,69.60
2022-10-14T16:26:13.340Z,69.90
2022-10-14T16:28:40.557Z,70.30
2022-10-14T16:31:12.451Z,70.60
2022-10-14T16:33:41.836Z,71.00
2022-10-14T16:36:14.682Z,71.00
2022-10-14T16:38:41.633Z,71.50
2022-10-14T16:41:10.559Z,71.90
2022-10-14T16:43:37.947Z,73.20
2022-10-14T16:46:06.866Z,72.60
2022-10-14T16:48:35.688Z,72.80
2022-10-14T16:51:03.497Z,72.90
2022-10-14T16:53:48.898Z,73.10
2022-10-14T16:56:39.369Z,73.00
2022-10-14T16:59:08.371Z,73.20
2022-10-14T17:01:36.371Z,73.00
2022-10-14T17:04:04.238Z,73.20
2022-10-14T17:06:32.234Z,73.30
2022-10-14T17:09:01.801Z,73.40
2022-10-14T17:11:29.467Z,73.40
2022-10-14T17:13:59.796Z,73.70
2022-10-14T17:16:28.795Z,74.00
2022-10-14T17:18:58.361Z,74.00
2022-10-14T17:21:29.686Z,74.20
2022-10-14T17:24:04.021Z,74.30
2022-10-14T17:26:34.569Z,74.50
2022-10-14T17:29:05.106Z,74.70
2022-10-14T17:31:32.315Z,74.70
2022-10-14T17:33:59.859Z,74.90
2022-10-14T17:36:30.726Z,75.10
2022-10-14T17:38:58.752Z,75.20
2022-10-14T17:41:28.261Z,75.20
2022-10-14T17:43:57.434Z,75.30
2022-10-14T17:46:25.727Z,75.40
2022-10-14T17:48:58.216Z,75.40
2022-10-14T17:51:26.783Z,75.40
2022-10-14T17:53:59.356Z,75.50
2022-10-14T17:56:28.063Z,75.50
2022-10-14T17:58:57.059Z,75.60
2022-10-14T18:01:37.317Z,75.60
2022-10-14T18:04:10.907Z,75.80
2022-10-14T18:06:38.333Z,75.80
2022-10-14T18:09:08.375Z,75.90
2022-10-14T18:12:07.102Z,75.90
2022-10-14T18:14:27.770Z,76.00
2022-10-14T18:16:54.818Z,76.00
2022-10-14T18:19:21.795Z,76.10
2022-10-14T18:21:48.761Z,76.20
2022-10-14T18:24:15.743Z,76.20
2022-10-14T18:26:42.796Z,76.30
2022-10-14T18:29:09.931Z,76.30
2022-10-14T18:31:37.576Z,76.40
2022-10-14T18:34:07.779Z,76.70
2022-10-14T18:36:35.503Z,76.70
2022-10-14T18:39:09.105Z,76.90
2022-10-14T18:41:39.850Z,77.10
2022-10-14T18:44:07.097Z,77.10
2022-10-14T18:46:36.321Z,77.30
2022-10-14T18:49:05.544Z,77.50
2022-10-14T18:51:35.246Z,77.60
2022-10-14T18:54:07.510Z,77.70
2022-10-14T18:56:38.874Z,77.70
2022-10-14T18:59:15.333Z,77.70
2022-10-14T19:01:42.833Z,77.90
2022-10-14T19:04:13.080Z,77.90
2022-10-14T19:06:40.856Z,77.90
2022-10-14T19:09:12.480Z,78.10
2022-10-14T19:11:39.681Z,78.20
2022-10-14T19:14:06.586Z,78.30
2022-10-14T19:16:38.567Z,78.50
2022-10-14T19:19:18.019Z,78.70
2022-10-14T19:21:47.634Z,78.90
2022-10-14T19:24:16.303Z,79.10
2022-10-14T19:26:45.580Z,79.30
2022-10-14T19:29:15.093Z,79.50
2022-10-14T19:31:43.684Z,79.70
2022-10-14T19:34:13.570Z,79.90
2022-10-14T19:36:41.073Z,80.10
2022-10-14T19:39:11.352Z,80.30
2022-10-14T19:41:42.841Z,80.50
2022-10-14T19:44:10.770Z,80.60
2022-10-14T19:46:38.204Z,80.90
2022-10-14T19:49:05.827Z,81.10
2022-10-14T19:51:33.895Z,81.30
2022-10-14T19:54:00.936Z,81.40
2022-10-14T19:56:28.613Z,81.60
2022-10-14T19:58:57.711Z,81.70
2022-10-14T20:01:28.349Z,81.90
2022-10-14T20:03:55.741Z,82.00
2022-10-14T20:06:23.638Z,82.00
2022-10-14T20:08:51.394Z,82.20
2022-10-14T20:11:21.311Z,82.40
2022-10-14T20:13:48.844Z,82.50
2022-10-14T20:16:16.439Z,82.60
2022-10-14T20:18:43.849Z,82.70
2022-10-14T20:21:13.473Z,82.80
2022-10-14T20:23:40.470Z,83.00
2022-10-14T20:26:10.926Z,83.00
2022-10-14T20:28:39.236Z,83.10
2022-10-14T20:31:07.788Z,83.20
2022-10-14T20:33:34.911Z,83.20
2022-10-14T20:36:04.296Z,83.20
2022-10-14T20:38:31.484Z,83.30
2022-10-14T20:41:14.148Z,83.30
2022-10-14T20:43:42.190Z,83.40
2022-10-14T20:46:09.976Z,83.40
2022-10-14T20:48:37.484Z,83.50
2022-10-14T20:51:08.755Z,83.50
2022-10-14T20:53:35.964Z,83.60
2022-10-14T20:56:12.081Z,83.60
2022-10-14T20:58:39.490Z,83.80
2022-10-14T21:01:11.821Z,83.80
2022-10-14T21:03:39.176Z,83.90
2022-10-14T21:06:08.930Z,83.90
2022-10-14T21:08:36.868Z,84.00
2022-10-14T21:11:10.461Z,84.00
2022-10-14T21:13:43.030Z,84.10
2022-10-14T21:16:17.063Z,84.00
2022-10-14T21:18:52.406Z,84.10
2022-10-14T21:21:26.060Z,84.10
2022-10-14T21:23:53.756Z,84.00
2022-10-14T21:26:21.024Z,84.00
2022-10-14T21:28:48.167Z,84.10
2022-10-14T21:31:18.751Z,84.20
2022-10-14T21:33:47.773Z,84.30
2022-10-14T21:36:16.360Z,84.40
2022-10-14T21:38:43.766Z,84.50
2022-10-14T21:41:11.300Z,84.50
2022-10-14T21:43:38.698Z,84.50
2022-10-14T21:46:07.172Z,84.50
2022-10-14T21:48:34.378Z,84.50
2022-10-14T21:51:10.425Z,84.50
2022-10-14T21:53:39.328Z,84.50
2022-10-14T21:56:07.200Z,84.60
2022-10-14T21:58:35.203Z,84.50
2022-10-14T22:01:17.009Z,85.30
2022-10-14T22:03:44.851Z,84.70
2022-10-14T22:06:14.495Z,84.80
2022-10-14T22:08:47.657Z,84.90
2022-10-14T22:11:38.747Z,85.00
2022-10-14T22:14:08.260Z,85.00
2022-10-14T22:16:35.742Z,85.10
2022-10-14T22:19:05.238Z,85.10
2022-10-14T22:21:34.137Z,85.10
2022-10-14T22:24:01.478Z,85.10
2022-10-14T22:26:30.164Z,85.00
2022-10-14T22:29:11.599Z,85.10
2022-10-14T22:31:38.636Z,85.10
2022-10-14T22:34:07.498Z,85.00
2022-10-14T22:36:35.735Z,85.00
2022-10-14T22:39:05.912Z,85.10
2022-10-14T22:41:35.646Z,85.20
2022-10-14T22:44:04.377Z,85.20
2022-10-14T22:46:33.370Z,85.30
2022-10-14T22:49:01.769Z,85.30
2022-10-14T22:51:37.875Z,85.30
2022-10-14T22:54:05.022Z,85.40
2022-10-14T22:56:33.229Z,85.50
2022-10-14T22:59:03.040Z,85.50
2022-10-14T23:01:30.493Z,85.50
2022-10-14T23:03:58.910Z,85.60
2022-10-14T23:06:26.154Z,85.50
2022-10-14T23:08:54.344Z,85.50
2022-10-14T23:11:22.995Z,85.50
2022-10-14T23:13:50.518Z,85.50
2022-10-14T23:16:26.121Z,85.50
2022-10-14T23:18:53.690Z,85.50
2022-10-14T23:21:27.135Z,85.40
2022-10-14T23:23:56.907Z,85.50
2022-10-14T23:26:26.156Z,85.50
2022-10-14T23:28:56.276Z,85.60
2022-10-14T23:31:26.947Z,85.50
2022-10-14T23:33:54.587Z,85.60
2022-10-14T23:36:22.709Z,85.60
2022-10-14T23:38:51.548Z,85.50
2022-10-14T23:41:21.958Z,85.50
2022-10-14T23:43:50.401Z,85.30
2022-10-14T23:46:17.926Z,85.10
2022-10-14T23:48:51.465Z,84.90
2022-10-14T23:51:27.971Z,84.70
2022-10-14T23:53:54.881Z,84.50
2022-10-14T23:56:21.865Z,84.30
2022-10-14T23:58:48.894Z,84.00
